METAR AND TAF INFORMATION
METAR FOR LKMT
ADDS - METARS form results

(0416 UTC 26 February 2020)
Data provider http://aviationweather.gov/metar/data/
 
METAR text: LKMT 260400Z 22007KT 9999 OVC039 06/04 Q0995 NOSIG
Conditions at: LKMT (OSTRAVA/MOSNOV , CZ) observed 0400 UTC 26 February 2020
Temperature: 6.0°C (43°F)
Dewpoint: 4.0°C (39°F) [RH = 87%]
Pressure (altimeter): 29.38 inches Hg (995.0 mb)
Winds: from the SW (220 degrees) at 8 MPH (7 knots; 3.6 m/s)
Visibility: 6 or more miles (10+ km)
Ceiling: 3900 feet AGL
Clouds: overcast cloud deck at 3900 feet AGL
Weather: no significant weather observed at this time

METAR text: LKMT 260330Z 23008KT 9999 BKN025 OVC030 06/04 Q0995 NOSIG
Conditions at: LKMT (OSTRAVA/MOSNOV , CZ) observed 0330 UTC 26 February 2020
Temperature: 6.0°C (43°F)
Dewpoint: 4.0°C (39°F) [RH = 87%]
Pressure (altimeter): 29.38 inches Hg (995.0 mb)
Winds: from the SW (230 degrees) at 9 MPH (8 knots; 4.1 m/s)
Visibility: 6 or more miles (10+ km)
Ceiling: 2500 feet AGL
Clouds: broken clouds at 2500 feet AGL
overcast cloud deck at 3000 feet AGL
Weather: no significant weather observed at this time

METAR text: LKMT 260317Z 25008KT 9999 -RA FEW017 OVC020 06/04 Q0995 RMK REG QNH 0990
Conditions at: LKMT (OSTRAVA/MOSNOV , CZ) observed 0317 UTC 26 February 2020
Temperature: 6.0°C (43°F)
Dewpoint: 4.0°C (39°F) [RH = 87%]
Pressure (altimeter): 29.38 inches Hg (995.0 mb)
Winds: from the WSW (250 degrees) at 9 MPH (8 knots; 4.1 m/s)
Visibility: 6 or more miles (10+ km)
Ceiling: 2000 feet AGL
Clouds: few clouds at 1700 feet AGL
overcast cloud deck at 2000 feet AGL
Weather: -RA  (light rain)

Forecast for: LKMT (OSTRAVA/MOSNOV , CZ)
Text: TAF LKMT 252300Z 2600/2706 22010KT 9999 SCT040
Forecast period: 0000 UTC 26 February 2020 to 0600 UTC 27 February 2020
Forecast type: FROM: standard forecast or significant change
Winds: from the SW (220 degrees) at 12 MPH (10 knots; 5.1 m/s)
Visibility: 6 or more miles 10+ km)
Ceiling: at least 12,000 feet AGL
Clouds: scattered clouds at 4000 feet AGL
Weather: no significant weather forecast for this period
Text: PROB30
Forecast period: 1000 UTC 26 February 2020 to 0300 UTC 27 February 2020
Forecast type: TEMPORARY: The following changes expected for less than half the time period
Visibility: 5 miles (8 km)
Ceiling: 2500 feet AGL
Clouds: scattered clouds at 1200 feet AGL
broken clouds at 2500 feet AGL
Weather: -SHRA  (light rain showers)
Text: TEMPO 2610/2703 8000 -SHRA SCT012TCU BKN025
Forecast period: 1100 to 1700 UTC 26 February 2020
Forecast type: TEMPORARY: The following changes expected for less than half the time period
Winds: from the W (270 degrees) at 12 MPH (10 knots; 5.1 m/s)
Visibility: missing
Ceiling: unknown
Clouds: missing
Weather: no significant weather forecast for this period

 AIRPORT MAP

 RUNWAY INFORMATION
Runway 04 Runway length 11484 ft Runway width 207 ft
Runway elevation 842 ft Runway displaced threshold 0 ft Runway heading 46
Runway 22 Runway length 11484 ft Runway width 207 ft
Runway elevation 808 ft Runway displaced threshold 0 ft Runway heading 226

 AIRPORT FREQUENCIES
Type APP Name OSTRAVA AP Frequency 125.1 MHZ
Type ATIS Name ATIS Frequency 118.05 MHZ
Type TWR Name TWR Frequency 120.8 MHZ

 AIRPORT NEAR NAVIGATION AIDS
Type VOR-DME Name Ostrava Frequency 117450 KHZ



Powered by Virtual Airlines Manager [v2.6.2]